الصفحة الرئيسية
METAR-TAF:

METAR-TAF

مطار :

Leigh Creek, أستراليا

دائرة عرض: 30-35-54S, خط طول: 138-25-36E, ارتفاع: 261 متر

مراقبة الطقس الحالي

تاريخ ووقت الإصدار 57 دقيقة قبل الساعة 13:00UTC
ريح 2 عقدة من الغرب
درجة الحرارة 19°درجة مئوية
الرطوبة 26%
ضغط 1017 hPa
الرؤية 10 كم أو أكثر

METAR: YLEC 101300Z AUTO 26002KT 9999 // NCD 19/M01 Q1017

زمن: 23:27 (13:57 UTC)


TAF: مفقودة

أرصاد الطقس والتوقعات من أكثر من 4000 مطار (تقارير الطقس للمطار METAR والتنبؤ بالطقس بالمطارTAF).

المحطات المتاحة هي النقط الصفراء والحمراء على الخريطة.

حرك المؤشر فوق النقطة لمعرفة اسم المحطة.

ثم انقر لمعرفة أرصاد وتوقعات الطقس.

لتغيير الخارطة: اضغط على الأزرار الخضراء مع رمز الصليب الأسود للتكبير. على الزر الأخضر مع شرطة للتصغير، أو على الأسهم الخضراء للخرائط المجاورة.


METAR-TAF: